Cleveland, Minnesota
Current Conditions -  °F | °C
As of 1:35 PM on Monday 22 Dec 2014 (Local Time) from KMKT Reporting Station
Overcast Overcast  
Wind Chill: 25°   Ceiling: 800
Heat Index: 36°   Visibility: 5mi
Dew Point: 32°   Wind: 18mph
Humidity: 87%   Direction: 130°SE
Pressure: 29.53"   Gusts: NA
Location:  44.33°N, 93.84°W
Report Text: KMKT 221935Z AUTO 13016KT 5SM OVC008 02/00 A2953 RMK AO1
Loading
Personal Weather Stations






























Interactive Weather Map New forecast layout! Learn more

10-Day Weather Forecast

Advertisements
Track Severe Weather on mobile